Flight Track Log - Related Links

Times and Time Zones

All times are in EDT time to prevent confusion due to time zone crossing. See the N729JB flight status page for this flight to view local times or setup timezone preferences in your user account.

Time Position Orientation Groundspeed Altitude Reporting Facility
EDT Latitude Longitude Course Direction KTS MPH feet Rate Location/Type
Mon 09:01:32 PM 18.9372 -69.8189 342° North 452 520 16,300  Level Miami Center
Mon 09:02:32 PM 19.0472 -69.8572 342° North 434 499 17,700 1,400 Climbing Miami Center
Mon 09:03:32 PM 19.1508 -69.8981 340° North 414 476 19,100 1,200 Climbing Miami Center
Mon 09:04:32 PM 19.2631 -69.9408 340° North 408 470 20,100 950 Climbing Miami Center
Mon 09:05:32 PM 19.3772 -69.9814 341° North 421 484 21,000 950 Climbing Miami Center
Mon 09:06:32 PM 19.4917 -70.0306 342° North 433 498 22,000 1,100 Climbing Miami Center
Mon 09:07:32 PM 19.6189 -70.0356 358° North 453 521 23,200 1,400 Climbing Miami Center
Mon 09:08:32 PM 19.7439 -70.0361 360° North 446 513 24,800 1,200 Climbing Miami Center
Mon 09:09:32 PM 19.8689 -70.0386 359° North 446 513 25,600 850 Climbing Miami Center
Mon 09:10:32 PM 19.9939 -70.0414 359° North 446 513 26,500 750 Climbing Miami Center
Mon 09:11:32 PM 20.1250 -70.0394 North 451 519 27,100 1,150 Climbing Miami Center
Mon 09:12:32 PM 20.2561 -70.0375 North 461 531 28,800 1,400 Climbing Miami Center
Mon 09:13:32 PM 20.3811 -70.0378 360° North 461 531 29,900 950 Climbing Miami Center
Mon 09:14:32 PM 20.5061 -70.0383 360° North 455 524 30,700 850 Climbing Miami Center
Mon 09:15:32 PM 20.6311 -70.0389 360° North 455 524 31,600 950 Climbing Miami Center
Mon 09:16:32 PM 20.7561 -70.0369 North 450 518 32,600 1,050 Climbing Miami Center
Mon 09:17:32 PM 20.8811 -70.0375 360° North 445 512 33,700 700 Climbing Miami Center
Mon 09:18:32 PM 21.0022 -70.0381 360° North 440 506 34,000 150 Climbing Miami Center
Mon 09:19:32 PM 21.1250 -70.0364 North 440 506 34,000  Level Miami Center
Mon 09:20:32 PM 21.2481 -70.0367 360° North 440 506 34,000  Level Miami Center
Mon 09:21:32 PM 21.3708 -70.0372 360° North 440 506 34,000  Level Miami Center
Mon 09:22:32 PM 21.4939 -70.0375 360° North 440 506 34,000  Level Miami Center
Mon 09:23:32 PM 21.6192 -70.0378 360° North 440 506 34,000  Level Miami Center
Mon 09:24:32 PM 21.7400 -70.0383 360° North 440 506 34,000  Level Miami Center
Mon 09:25:32 PM 21.8650 -70.0386 360° North 440 506 34,000  Level Miami Center
Mon 09:26:32 PM 21.9922 -70.0389 360° North 440 506 34,000  Level Miami Center
Mon 09:27:32 PM 22.1133 -70.0394 360° North 440 506 34,000  Level Miami Center
Mon 09:28:32 PM 22.2383 -70.0397 360° North 440 506 34,000  Level Miami Center
Mon 09:29:32 PM 22.3636 -70.0397 360° North 440 506 34,000  Level Miami Center
Mon 09:30:32 PM 22.4844 -70.0403 360° North 440 506 34,000  Level Miami Center
Mon 09:31:32 PM 22.6075 -70.0406 360° North 440 506 34,000  Level Miami Center
Mon 09:32:32 PM 22.7286 -70.0408 360° North 440 506 34,000  Level Miami Center
Mon 09:33:32 PM 22.8494 -70.0414 360° North 440 506 34,000  Level Miami Center
Mon 09:34:33 PM 22.9706 -70.0417 360° North 440 506 34,000  Level Miami Center
Mon 09:35:32 PM 23.0894 -70.0422 360° North 440 506 34,000  Level Miami Center
Mon 09:36:33 PM 23.2125 -70.0403 North 440 506 34,000  Level Miami Center
Mon 09:37:34 PM 23.3314 -70.0406 360° North 440 506 34,000  Level Miami Center
Mon 09:38:32 PM 23.4522 -70.0408 360° North 440 506 34,000  Level Miami Center
Mon 09:39:33 PM 23.5733 -70.0389 North 440 506 34,000  Level Miami Center
Mon 09:40:33 PM 23.6967 -70.0436 358° North 440 506 34,000  Level Miami Center
Mon 09:41:32 PM 23.8133 -70.0419 North 434 499 34,000  Level Miami Center
Mon 09:42:33 PM 23.9364 -70.0419 360° North 434 499 34,000  Level Miami Center
Mon 09:43:32 PM 24.0597 -70.0467 358° North 434 499 34,000  Level Miami Center
Mon 09:44:33 PM 24.1831 -70.0492 359° North 440 506 34,000  Level Miami Center
Mon 09:45:34 PM 24.3058 -70.0469 North 440 506 34,000  Level Miami Center
Mon 09:46:35 PM 24.4281 -70.0267 North 440 506 34,000  Level Miami Center
Mon 09:47:35 PM 24.5531 -70.0242 North 440 506 34,000  Level Miami Center
Mon 09:48:32 PM 24.6764 -70.0289 358° North 440 506 34,000  Level Miami Center
Mon 09:49:33 PM 24.7997 -70.0289 360° North 440 506 34,000  Level Miami Center
Mon 09:50:34 PM 24.9228 -70.0311 359° North 440 506 34,000  Level Miami Center
Mon 09:52:00 PM 25.0860 -70.0698 348° North  Level FlightAware Approximate
Mon 09:53:09 PM 25.0000 -70.0500 348° North 433 498 34,000  Level New York Oceanic (ODAPS)
Mon 09:59:00 PM 25.9460 -70.2704 348° North 433 498 34,000  Level FlightAware Transoceanic
Mon 10:00:00 PM 26.0642 -70.2982 348° North 433 498 34,000  Level FlightAware Transoceanic
Mon 10:01:00 PM 26.1825 -70.3261 348° North 433 498 34,000  Level FlightAware Transoceanic
Mon 10:02:00 PM 26.3007 -70.3540 348° North 433 498 34,000  Level FlightAware Transoceanic
Mon 10:03:00 PM 26.4189 -70.3820 348° North 433 498 34,000  Level FlightAware Transoceanic
Mon 10:04:00 PM 26.5371 -70.4100 348° North 433 498 34,000  Level FlightAware Transoceanic
Mon 10:05:00 PM 26.6553 -70.4381 348° North 433 498 34,000  Level FlightAware Transoceanic
Mon 10:06:00 PM 26.7735 -70.4663 348° North 433 498 34,000  Level FlightAware Transoceanic
Mon 10:07:00 PM 26.8917 -70.4945 348° North 433 498 34,000  Level FlightAware Transoceanic
Mon 10:08:00 PM 27.0099 -70.5227 348° North 433 498 34,000  Level FlightAware Transoceanic
Mon 10:09:00 PM 27.1280 -70.5510 348° North 433 498 34,000  Level FlightAware Transoceanic
Mon 10:10:00 PM 27.2462 -70.5794 348° North 433 498 34,000  Level FlightAware Transoceanic
Mon 10:11:00 PM 27.3644 -70.6079 348° North 433 498 34,000  Level FlightAware Transoceanic
Mon 10:12:00 PM 27.4825 -70.6364 348° North 433 498 34,000  Level FlightAware Transoceanic
Mon 10:13:00 PM 27.6007 -70.6649 348° North 433 498 34,000  Level FlightAware Transoceanic
Mon 10:14:00 PM 27.7188 -70.6936 348° North 433 498 34,000  Level FlightAware Transoceanic
Mon 10:15:00 PM 27.8370 -70.7223 348° North 433 498 34,000  Level FlightAware Transoceanic
Mon 10:16:00 PM 27.9551 -70.7510 348° North 433 498 34,000  Level FlightAware Transoceanic
Mon 10:17:00 PM 28.0732 -70.7798 348° North 433 498 34,000  Level FlightAware Transoceanic
Mon 10:18:00 PM 28.1914 -70.8087 348° North 433 498 34,000  Level FlightAware Transoceanic
Mon 10:19:00 PM 28.3095 -70.8376 348° North 433 498 34,000  Level FlightAware Transoceanic
Mon 10:20:00 PM 28.4276 -70.8667 348° North 433 498 34,000  Level FlightAware Transoceanic
Mon 10:21:00 PM 28.5457 -70.8957 348° North 433 498 34,000  Level FlightAware Transoceanic
Mon 10:22:00 PM 28.6638 -70.9249 348° North 433 498 34,000  Level FlightAware Transoceanic
Mon 10:23:00 PM 28.7819 -70.9541 348° North 433 498 34,000  Level FlightAware Transoceanic
Mon 10:24:00 PM 28.9000 -70.9833 348° North 433 498 34,000  Level FlightAware Transoceanic
Mon 10:24:11 PM 28.9000 -70.9833 348° North 415 478 34,000  Level New York Oceanic (ODAPS)
Mon 10:25:00 PM 29.0157 -71.0117 348° North 433 498 34,000  Level FlightAware Transoceanic
Mon 10:26:00 PM 29.1313 -71.0402 348° North 433 498 34,000  Level FlightAware Transoceanic
Mon 10:27:00 PM 29.2470 -71.0688 348° North 433 498 34,000  Level FlightAware Transoceanic
Mon 10:28:00 PM 29.3626 -71.0974 348° North 433 498 34,000  Level FlightAware Transoceanic
Mon 10:29:00 PM 29.4783 -71.1260 348° North 433 498 34,000  Level FlightAware Transoceanic
Mon 10:30:00 PM 29.5785 -71.1509 348° North 415 478 34,000  Level FlightAware Transoceanic
Mon 10:31:00 PM 29.6916 -71.1791 348° North 415 478 34,000  Level FlightAware Transoceanic
Mon 10:32:00 PM 29.8047 -71.2073 348° North 415 478 34,000  Level FlightAware Transoceanic
Mon 10:33:00 PM 29.9177 -71.2356 348° North 415 478 34,000  Level FlightAware Transoceanic
Mon 10:34:00 PM 30.0308 -71.2639 348° North 415 478 34,000  Level FlightAware Transoceanic
Mon 10:35:00 PM 30.1438 -71.2923 348° North 415 478 34,000  Level FlightAware Transoceanic
Mon 10:36:00 PM 30.2568 -71.3208 348° North 415 478 34,000  Level FlightAware Transoceanic
Mon 10:37:00 PM 30.3699 -71.3493 348° North 415 478 34,000  Level FlightAware Transoceanic
Mon 10:38:00 PM 30.4829 -71.3779 348° North 415 478 34,000  Level FlightAware Transoceanic
Mon 10:39:00 PM 30.5959 -71.4066 348° North 415 478 34,000  Level FlightAware Transoceanic
Mon 10:40:00 PM 30.7089 -71.4353 348° North 415 478 34,000  Level FlightAware Transoceanic
Mon 10:41:00 PM 30.8219 -71.4641 348° North 415 478 34,000  Level FlightAware Transoceanic
Mon 10:42:00 PM 30.9349 -71.4930 348° North 415 478 34,000  Level FlightAware Transoceanic
Mon 10:43:00 PM 31.0479 -71.5220 348° North 415 478 34,000  Level FlightAware Transoceanic
Mon 10:44:00 PM 31.1609 -71.5510 348° North 415 478 34,000  Level FlightAware Transoceanic
Mon 10:45:00 PM 31.2739 -71.5800 348° North 415 478 34,000  Level FlightAware Transoceanic
Mon 10:46:00 PM 31.3869 -71.6092 348° North 415 478 34,000  Level FlightAware Transoceanic
Mon 10:47:00 PM 31.4998 -71.6384 348° North 415 478 34,000  Level FlightAware Transoceanic
Mon 10:48:00 PM 31.6128 -71.6677 348° North 415 478 34,000  Level FlightAware Transoceanic
Mon 10:49:00 PM 31.7257 -71.6971 348° North 415 478 34,000  Level FlightAware Transoceanic
Mon 10:50:00 PM 31.8387 -71.7265 348° North 415 478 34,000  Level FlightAware Transoceanic
Mon 10:51:00 PM 31.9516 -71.7560 347° North 415 478 34,000  Level FlightAware Transoceanic
Mon 10:52:00 PM 32.0646 -71.7856 347° North 415 478 34,000  Level FlightAware Transoceanic
Mon 10:53:00 PM 32.1775 -71.8152 347° North 415 478 34,000  Level FlightAware Transoceanic
Mon 10:54:00 PM 32.2904 -71.8450 347° North 415 478 34,000  Level FlightAware Transoceanic
Mon 10:55:00 PM 32.4033 -71.8747 347° North 415 478 34,000  Level FlightAware Transoceanic
Mon 10:56:00 PM 32.5162 -71.9046 347° North 415 478 34,000  Level FlightAware Transoceanic
Mon 10:57:00 PM 32.6291 -71.9346 347° North 415 478 34,000  Level FlightAware Transoceanic
Mon 10:58:00 PM 32.7420 -71.9646 347° North 415 478 34,000  Level FlightAware Transoceanic
Mon 10:59:00 PM 32.8549 -71.9947 347° North 415 478 34,000  Level FlightAware Transoceanic
Mon 11:00:00 PM 32.9678 -72.0249 347° North 415 478 34,000  Level FlightAware Transoceanic
Mon 11:01:00 PM 33.0807 -72.0551 347° North 415 478 34,000  Level FlightAware Transoceanic
Mon 11:02:00 PM 33.1935 -72.0855 347° North 415 478 34,000  Level FlightAware Transoceanic
Mon 11:03:00 PM 33.3064 -72.1159 347° North 415 478 34,000  Level FlightAware Transoceanic
Mon 11:04:00 PM 33.4192 -72.1464 347° North 415 478 34,000  Level FlightAware Transoceanic
Mon 11:05:00 PM 33.5321 -72.1769 347° North 415 478 34,000  Level FlightAware Transoceanic
Mon 11:06:00 PM 33.6449 -72.2076 347° North 415 478 34,000  Level FlightAware Transoceanic
Mon 11:07:00 PM 33.7577 -72.2383 347° North 415 478 34,000  Level FlightAware Transoceanic
Mon 11:08:00 PM 33.8705 -72.2691 347° North 415 478 34,000  Level FlightAware Transoceanic
Mon 11:09:00 PM 33.9833 -72.3000 355° North 415 478 34,000  Level FlightAware Transoceanic
Mon 11:10:00 PM 34.1019 -72.3128 355° North 415 478 34,000  Level FlightAware Transoceanic
Mon 11:11:00 PM 34.2204 -72.3257 355° North 415 478 34,000  Level FlightAware Transoceanic
Mon 11:11:40 PM 34.2308 -72.2964 355° North 459 528 34,000  Level New York Center
Mon 11:12:00 PM 34.3389 -72.3386 355° North 415 478 34,000  Level FlightAware Transoceanic
Mon 11:12:41 PM 34.3308 -72.3083 354° North 459 528 34,000  Level New York Center
Mon 11:13:00 PM 34.4574 -72.3515 355° North 415 478 34,000  Level FlightAware Transoceanic
Mon 11:13:40 PM 34.4475 -72.3233 354° North 410 472 34,000  Level New York Center
Mon 11:14:00 PM 34.5759 -72.3644 355° North 415 478 34,000  Level FlightAware Transoceanic
Mon 11:14:42 PM 34.5661 -72.3308 357° North 433 498 34,000  Level New York Center
Mon 11:15:00 PM 34.6945 -72.3774 355° North 415 478 34,000  Level FlightAware Transoceanic
Mon 11:15:41 PM 34.6786 -72.3506 352° North 420 483 34,000 -61 Level New York Center
Mon 11:16:39 PM 34.8033 -72.3683 353° North 412 474 33,900  Descending New York Center
Mon 11:17:40 PM 34.8825 -72.3800 353° North 412 474 34,000 50 Climbing New York Center
Mon 11:18:40 PM 35.0178 -72.4083 350° North 445 512 34,000  Level New York Center
Mon 11:19:42 PM 35.1367 -72.4108 359° North 429 494 34,000  Level New York Center
Mon 11:20:42 PM 35.2556 -72.4083 North 417 480 34,000  Level New York Center
Mon 11:21:42 PM 35.3767 -72.4083 360° North 423 487 34,000  Level New York Center
Mon 11:22:39 PM 35.4975 -72.4058 North 423 487 34,000  Level New York Center
Mon 11:23:40 PM 35.6122 -72.4083 359° North 416 479 34,000  Level New York Center
Mon 11:24:41 PM 35.7311 -72.4056 North 421 484 34,000  Level New York Center
Mon 11:25:39 PM 35.8544 -72.4031 North 421 484 34,000  Level New York Center
Mon 11:26:40 PM 35.9733 -72.4031 360° North 426 490 34,000  Level New York Center
Mon 11:27:40 PM 36.0922 -72.4006 North 421 484 34,000  Level New York Center
Mon 11:28:41 PM 36.2111 -72.4006 360° North 416 479 34,000 -50 Level New York Center
Mon 11:29:40 PM 36.3281 -72.3981 North 422 486 33,900  Descending New York Center
Mon 11:30:42 PM 36.4469 -72.4006 359° North 422 486 34,000 50 Climbing New York Center
Mon 11:31:41 PM 36.5681 -72.3981 North 417 480 34,000  Level New York Center
Mon 11:32:41 PM 36.6911 -72.3956 North 422 486 34,000  Level New York Center
Mon 11:33:41 PM 36.8058 -72.3956 360° North 422 486 34,000  Level New York Center
Mon 11:34:39 PM 36.9247 -72.3956 360° North 422 486 34,000  Level New York Center
Mon 11:35:40 PM 37.0392 -72.4189 351° North 417 480 34,000  Level New York Center
Mon 11:36:40 PM 37.1469 -72.4681 340° North 411 473 34,000  Level New York Center
Mon 11:37:40 PM 37.2567 -72.5228 338° Northwest 419 482 34,000  Level New York Center
Mon 11:38:41 PM 37.3686 -72.5725 341° North 419 482 34,000  Level New York Center
Mon 11:39:41 PM 37.4742 -72.6247 339° North 417 480 34,000  Level New York Center
Mon 11:40:41 PM 37.5817 -72.6747 340° North 411 473 34,000 -50 Level New York Center
Mon 11:41:42 PM 37.6933 -72.7328 338° Northwest 393 452 33,900 -50 Descending New York Center
Mon 11:42:40 PM 37.7925 -72.7933 334° Northwest 393 452 33,900 -356 Level New York Center
Mon 11:43:40 PM 37.9086 -72.8308 346° North 409 471 33,200 -836 Descending New York Center
Mon 11:44:42 PM 38.0161 -72.8892 337° Northwest 414 476 32,200 -942 Descending New York Center
Mon 11:45:41 PM 38.1278 -72.9400 340° North 414 476 31,300 -974 Descending New York Center
Mon 11:46:39 PM 38.2414 -72.9911 341° North 420 483 30,300 -958 Descending New York Center
Mon 11:47:40 PM 38.3531 -73.0447 339° North 430 495 29,400 -732 Descending New York Center
Mon 11:48:42 PM 38.4689 -73.1014 339° North 437 503 28,800 -600 Descending New York Center
Mon 11:49:40 PM 38.5864 -73.1583 339° North 437 503 28,200 -600 Descending New York Center
Mon 11:50:42 PM 38.6978 -73.2153 338° Northwest 437 503 27,600 -545 Descending New York Center
Mon 11:51:41 PM 38.8156 -73.2700 340° North 443 510 27,100 -550 Descending New York Center
Mon 11:52:42 PM 38.9353 -73.3278 339° North 443 510 26,500 -850 Descending New York Center
Mon 11:53:41 PM 39.0528 -73.3853 339° North 443 510 25,400 -2,441 Descending New York Center
Mon 11:54:40 PM 39.1703 -73.4433 339° North 443 510 21,700 -3,150 Descending New York Center
Mon 11:55:41 PM 39.2817 -73.4983 339° North 443 510 19,100 -1,650 Descending New York Center
Mon 11:56:40 PM 39.3889 -73.5511 339° North 428 493 18,400 -1,068 Descending New York Center
Mon 11:57:39 PM 39.5072 -73.5692 353° North 423 487 17,000 -1,950 Descending New York Center
Mon 11:58:40 PM 39.6214 -73.5900 352° North 418 481 14,500 -2,607 Descending New York Center
Mon 11:59:41 PM 39.7336 -73.6106 352° North 412 474 11,700 -1,983 Descending New York Center
Tue 12:00:41 AM 39.8353 -73.6283 352° North 395 455 10,500 -850 Descending New York Center
Tue 12:01:41 AM 39.9225 -73.6453 352° North 351 404 10,000 -864 Descending New York Center
Tue 12:02:39 AM 40.0014 -73.6567 354° North 312 359 8,800 -1,261 Descending New York Center
Tue 12:03:40 AM 40.0803 -73.6600 358° North 278 320 7,500 -1,059 Descending New York Center
Tue 12:04:21 AM 40.1333 -73.6667 355° North 283 326 7,000 -832 Descending New York TRACON
Tue 12:05:21 AM 40.2167 -73.6667 360° North 283 326 6,100 -1,250 Descending New York TRACON
Tue 12:06:21 AM 40.3000 -73.6667 360° North 284 327 4,500 -1,450 Descending New York TRACON
Tue 12:07:21 AM 40.3667 -73.6667 360° North 284 327 3,200 -750 Descending New York TRACON
Tue 12:08:21 AM 40.4500 -73.6833 351° North 285 328 3,000 -150 Descending New York TRACON
Tue 12:09:21 AM 40.5333 -73.6833 360° North 277 319 2,900 -400 Descending New York TRACON
Tue 12:10:21 AM 40.6000 -73.6667 11° North 236 272 2,200 -700 Descending New York TRACON
Tue 12:11:21 AM 40.6500 -73.6667 360° North 175 201 1,500 -600 Descending New York TRACON
Tue 12:12:21 AM 40.6667 -73.7167 294° West 147 169 1,000 3,731 Descending New York TRACON
Tue 12:14:42 AM 40.6414 -73.8122 251° West 116 133 14,000 3,920 Climbing New York Center
Tue 12:15:40 AM 40.6297 -73.8528 249° West 116 133 14,000  Level New York Center

Login

Don't have an account? Register now (free) for customized features, flight alerts, and more!